sensor_id;sensor_type;location;lat;lon;timestamp;pressure;altitude;pressure_sealevel;temperature;humidity
37792;BME280;29527;55.766;37.570;2023-09-18T00:00:14;100324.56;;;12.60;65.46
37792;BME280;29527;55.766;37.570;2023-09-18T00:02:39;100334.75;;;12.77;65.25
37792;BME280;29527;55.766;37.570;2023-09-18T00:05:05;100339.25;;;12.88;64.79
37792;BME280;29527;55.766;37.570;2023-09-18T00:07:31;100337.63;;;12.97;64.65
37792;BME280;29527;55.766;37.570;2023-09-18T00:09:57;100330.06;;;13.02;64.24
37792;BME280;29527;55.766;37.570;2023-09-18T00:12:22;100339.16;;;13.11;64.19
37792;BME280;29527;55.766;37.570;2023-09-18T00:14:49;100336.00;;;13.17;63.88
37792;BME280;29527;55.766;37.570;2023-09-18T00:17:15;100334.59;;;13.23;63.62
37792;BME280;29527;55.766;37.570;2023-09-18T00:19:43;100336.31;;;13.24;63.73
37792;BME280;29527;55.766;37.570;2023-09-18T00:22:08;100334.38;;;13.26;63.37
37792;BME280;29527;55.766;37.570;2023-09-18T00:24:34;100332.25;;;13.30;63.14
37792;BME280;29527;55.766;37.570;2023-09-18T00:26:59;100330.19;;;13.33;63.02
37792;BME280;29527;55.766;37.570;2023-09-18T00:29:25;100320.53;;;13.31;63.02
37792;BME280;29527;55.766;37.570;2023-09-18T00:31:50;100329.47;;;13.31;62.94
37792;BME280;29527;55.766;37.570;2023-09-18T00:34:16;100332.63;;;13.25;63.30
37792;BME280;29527;55.766;37.570;2023-09-18T00:36:41;100337.44;;;13.21;63.10
37792;BME280;29527;55.766;37.570;2023-09-18T00:39:07;100338.53;;;13.19;63.40
37792;BME280;29527;55.766;37.570;2023-09-18T00:41:33;100338.81;;;13.16;63.56
37792;BME280;29527;55.766;37.570;2023-09-18T00:43:58;100331.59;;;13.16;63.50
37792;BME280;29527;55.766;37.570;2023-09-18T00:46:25;100332.63;;;13.25;63.16
37792;BME280;29527;55.766;37.570;2023-09-18T00:48:50;100335.56;;;13.33;62.74
37792;BME280;29527;55.766;37.570;2023-09-18T00:51:17;100342.59;;;13.46;62.86
37792;BME280;29527;55.766;37.570;2023-09-18T00:53:44;100333.78;;;13.55;62.71
37792;BME280;29527;55.766;37.570;2023-09-18T00:56:11;100329.84;;;13.59;62.30
37792;BME280;29527;55.766;37.570;2023-09-18T00:58:37;100310.28;;;13.57;62.17
37792;BME280;29527;55.766;37.570;2023-09-18T01:01:04;100314.59;;;13.70;61.89
37792;BME280;29527;55.766;37.570;2023-09-18T01:03:29;100327.72;;;13.84;61.68
37792;BME280;29527;55.766;37.570;2023-09-18T01:05:55;100321.94;;;13.89;61.42
37792;BME280;29527;55.766;37.570;2023-09-18T01:08:21;100320.53;;;13.95;61.35
37792;BME280;29527;55.766;37.570;2023-09-18T01:11:05;100313.81;;;14.10;61.24
37792;BME280;29527;55.766;37.570;2023-09-18T01:13:44;100312.00;;;14.11;61.06
37792;BME280;29527;55.766;37.570;2023-09-18T01:16:32;100308.22;;;14.23;60.88
37792;BME280;29527;55.766;37.570;2023-09-18T01:19:00;100306.34;;;14.14;60.61
37792;BME280;29527;55.766;37.570;2023-09-18T01:21:28;100309.88;;;14.14;60.39
37792;BME280;29527;55.766;37.570;2023-09-18T01:23:53;100312.28;;;14.17;60.58
37792;BME280;29527;55.766;37.570;2023-09-18T01:26:19;100303.22;;;14.18;60.35
37792;BME280;29527;55.766;37.570;2023-09-18T01:28:44;100274.09;;;14.02;60.49
37792;BME280;29527;55.766;37.570;2023-09-18T01:31:10;100300.81;;;14.15;60.33
37792;BME280;29527;55.766;37.570;2023-09-18T01:33:36;100302.78;;;14.13;60.45
37792;BME280;29527;55.766;37.570;2023-09-18T01:36:03;100296.34;;;14.04;60.84
37792;BME280;29527;55.766;37.570;2023-09-18T01:38:29;100281.31;;;13.92;61.04
37792;BME280;29527;55.766;37.570;2023-09-18T01:40:55;100295.78;;;14.01;61.10
37792;BME280;29527;55.766;37.570;2023-09-18T01:43:21;100297.91;;;13.97;61.19
37792;BME280;29527;55.766;37.570;2023-09-18T01:45:47;100294.03;;;13.90;61.31
37792;BME280;29527;55.766;37.570;2023-09-18T01:48:13;100287.63;;;13.81;61.84
37792;BME280;29527;55.766;37.570;2023-09-18T01:50:39;100291.81;;;13.74;61.93
37792;BME280;29527;55.766;37.570;2023-09-18T01:53:07;100275.16;;;13.59;62.32
37792;BME280;29527;55.766;37.570;2023-09-18T01:55:33;100284.94;;;13.60;62.57
37792;BME280;29527;55.766;37.570;2023-09-18T01:57:59;100282.66;;;13.55;62.84
37792;BME280;29527;55.766;37.570;2023-09-18T02:00:25;100271.19;;;13.53;63.16
37792;BME280;29527;55.766;37.570;2023-09-18T02:02:50;100266.91;;;13.51;62.86
37792;BME280;29527;55.766;37.570;2023-09-18T02:05:16;100269.78;;;13.59;62.90
37792;BME280;29527;55.766;37.570;2023-09-18T02:07:42;100266.81;;;13.62;62.98
37792;BME280;29527;55.766;37.570;2023-09-18T02:10:07;100267.41;;;13.66;62.93
37792;BME280;29527;55.766;37.570;2023-09-18T02:12:33;100261.03;;;13.67;62.81
37792;BME280;29527;55.766;37.570;2023-09-18T02:15:00;100251.66;;;13.61;62.86
37792;BME280;29527;55.766;37.570;2023-09-18T02:17:31;100266.47;;;13.76;62.66
37792;BME280;29527;55.766;37.570;2023-09-18T02:19:56;100260.44;;;13.84;62.48
37792;BME280;29527;55.766;37.570;2023-09-18T02:22:22;100267.25;;;13.88;62.48
37792;BME280;29527;55.766;37.570;2023-09-18T02:24:48;100263.19;;;13.94;62.08
37792;BME280;29527;55.766;37.570;2023-09-18T02:27:13;100265.47;;;13.99;62.03
37792;BME280;29527;55.766;37.570;2023-09-18T02:29:39;100259.53;;;14.05;62.03
37792;BME280;29527;55.766;37.570;2023-09-18T02:32:04;100257.56;;;14.07;61.73
37792;BME280;29527;55.766;37.570;2023-09-18T02:34:30;100257.56;;;14.07;61.95
37792;BME280;29527;55.766;37.570;2023-09-18T02:36:55;100265.19;;;14.02;61.84
37792;BME280;29527;55.766;37.570;2023-09-18T02:39:21;100256.66;;;13.97;62.18
37792;BME280;29527;55.766;37.570;2023-09-18T02:41:46;100255.50;;;13.89;62.63
37792;BME280;29527;55.766;37.570;2023-09-18T02:44:12;100260.44;;;13.84;62.56
37792;BME280;29527;55.766;37.570;2023-09-18T02:46:38;100255.28;;;13.71;62.97
37792;BME280;29527;55.766;37.570;2023-09-18T02:49:03;100264.19;;;13.72;63.19
37792;BME280;29527;55.766;37.570;2023-09-18T02:51:29;100251.44;;;13.74;63.29
37792;BME280;29527;55.766;37.570;2023-09-18T02:53:57;100215.41;;;13.55;63.16
37792;BME280;29527;55.766;37.570;2023-09-18T02:56:22;100255.59;;;13.78;63.13
37792;BME280;29527;55.766;37.570;2023-09-18T02:58:48;100244.56;;;13.81;63.10
37792;BME280;29527;55.766;37.570;2023-09-18T03:01:13;100258.34;;;13.88;62.92
37792;BME280;29527;55.766;37.570;2023-09-18T03:03:39;100250.97;;;13.90;62.90
37792;BME280;29527;55.766;37.570;2023-09-18T03:06:07;100252.81;;;13.89;62.80
37792;BME280;29527;55.766;37.570;2023-09-18T03:08:32;100253.94;;;13.97;62.68
37792;BME280;29527;55.766;37.570;2023-09-18T03:10:58;100262.50;;;14.02;62.71
37792;BME280;29527;55.766;37.570;2023-09-18T03:13:29;100263.06;;;14.05;62.55
37792;BME280;29527;55.766;37.570;2023-09-18T03:15:55;100255.00;;;14.05;62.24
37792;BME280;29527;55.766;37.570;2023-09-18T03:18:21;100263.81;;;14.17;62.14
37792;BME280;29527;55.766;37.570;2023-09-18T03:20:47;100259.84;;;14.21;61.91
37792;BME280;29527;55.766;37.570;2023-09-18T03:23:13;100236.84;;;14.07;62.04
37792;BME280;29527;55.766;37.570;2023-09-18T03:25:39;100245.56;;;14.21;61.97
37792;BME280;29527;55.766;37.570;2023-09-18T03:28:05;100255.22;;;14.24;62.01
37792;BME280;29527;55.766;37.570;2023-09-18T03:30:31;100258.88;;;14.23;62.02
37792;BME280;29527;55.766;37.570;2023-09-18T03:32:57;100255.91;;;14.26;61.90
37792;BME280;29527;55.766;37.570;2023-09-18T03:35:22;100252.25;;;14.27;61.98
37792;BME280;29527;55.766;37.570;2023-09-18T03:37:50;100256.47;;;14.29;61.93
37792;BME280;29527;55.766;37.570;2023-09-18T03:40:19;100245.59;;;14.31;61.87
37792;BME280;29527;55.766;37.570;2023-09-18T03:42:46;100257.78;;;14.35;62.14
37792;BME280;29527;55.766;37.570;2023-09-18T03:45:13;100256.78;;;14.36;62.11
37792;BME280;29527;55.766;37.570;2023-09-18T03:47:40;100261.63;;;14.42;62.01
37792;BME280;29527;55.766;37.570;2023-09-18T03:50:07;100258.63;;;14.45;61.77
37792;BME280;29527;55.766;37.570;2023-09-18T03:52:33;100258.22;;;14.50;61.85
37792;BME280;29527;55.766;37.570;2023-09-18T03:54:58;100259.38;;;14.57;61.58
37792;BME280;29527;55.766;37.570;2023-09-18T03:57:24;100254.84;;;14.58;61.20
37792;BME280;29527;55.766;37.570;2023-09-18T03:59:50;100254.84;;;14.58;61.40
37792;BME280;29527;55.766;37.570;2023-09-18T04:02:15;100258.25;;;14.60;61.34
37792;BME280;29527;55.766;37.570;2023-09-18T04:04:41;100249.75;;;14.64;61.30
37792;BME280;29527;55.766;37.570;2023-09-18T04:07:07;100247.25;;;14.73;61.05
37792;BME280;29527;55.766;37.570;2023-09-18T04:09:33;100242.72;;;14.73;60.88
37792;BME280;29527;55.766;37.570;2023-09-18T04:12:01;100245.97;;;14.87;60.77
37792;BME280;29527;55.766;37.570;2023-09-18T04:14:27;100219.44;;;14.82;60.45
37792;BME280;29527;55.766;37.570;2023-09-18T04:16:52;100239.16;;;15.02;60.40
37792;BME280;29527;55.766;37.570;2023-09-18T04:19:18;100236.00;;;15.07;59.98
37792;BME280;29527;55.766;37.570;2023-09-18T04:21:44;100237.16;;;15.14;60.10
37792;BME280;29527;55.766;37.570;2023-09-18T04:24:09;100240.97;;;15.21;59.74
37792;BME280;29527;55.766;37.570;2023-09-18T04:26:35;100238.97;;;15.33;59.39
37792;BME280;29527;55.766;37.570;2023-09-18T04:29:00;100241.78;;;15.42;59.04
37792;BME280;29527;55.766;37.570;2023-09-18T04:31:27;100242.94;;;15.49;59.09
37792;BME280;29527;55.766;37.570;2023-09-18T04:33:53;100234.94;;;15.57;58.94
37792;BME280;29527;55.766;37.570;2023-09-18T04:36:19;100225.84;;;15.58;58.86
37792;BME280;29527;55.766;37.570;2023-09-18T04:38:44;100224.69;;;15.71;58.54
37792;BME280;29527;55.766;37.570;2023-09-18T04:41:10;100231.44;;;15.85;58.36
37792;BME280;29527;55.766;37.570;2023-09-18T04:43:39;100238.53;;;15.96;58.01
37792;BME280;29527;55.766;37.570;2023-09-18T04:46:04;100237.50;;;16.06;57.65
37792;BME280;29527;55.766;37.570;2023-09-18T04:48:33;100237.59;;;16.15;57.38
37792;BME280;29527;55.766;37.570;2023-09-18T04:51:00;100240.16;;;16.16;57.54
37792;BME280;29527;55.766;37.570;2023-09-18T04:53:27;100234.91;;;16.15;57.44
37792;BME280;29527;55.766;37.570;2023-09-18T04:55:52;100214.72;;;16.09;57.04
37792;BME280;29527;55.766;37.570;2023-09-18T04:58:18;100239.94;;;16.28;57.00
37792;BME280;29527;55.766;37.570;2023-09-18T05:00:44;100243.03;;;16.33;56.86
37792;BME280;29527;55.766;37.570;2023-09-18T05:03:12;100240.53;;;16.49;56.37
37792;BME280;29527;55.766;37.570;2023-09-18T05:05:38;100228.94;;;17.30;54.25
37792;BME280;29527;55.766;37.570;2023-09-18T05:08:06;100239.25;;;18.82;50.80
37792;BME280;29527;55.766;37.570;2023-09-18T05:10:34;100236.09;;;20.01;47.31
37792;BME280;29527;55.766;37.570;2023-09-18T05:13:00;100241.19;;;20.67;45.39
37792;BME280;29527;55.766;37.570;2023-09-18T05:15:25;100244.94;;;21.36;43.88
37792;BME280;29527;55.766;37.570;2023-09-18T05:17:52;100236.09;;;21.87;42.51
37792;BME280;29527;55.766;37.570;2023-09-18T05:20:21;100248.53;;;22.57;41.05
37792;BME280;29527;55.766;37.570;2023-09-18T05:22:49;100246.09;;;23.56;38.97
37792;BME280;29527;55.766;37.570;2023-09-18T05:25:15;100235.22;;;24.46;37.57
37792;BME280;29527;55.766;37.570;2023-09-18T05:27:40;100235.56;;;25.39;35.56
37792;BME280;29527;55.766;37.570;2023-09-18T05:30:18;100252.63;;;26.86;33.92
37792;BME280;29527;55.766;37.570;2023-09-18T05:32:47;100249.38;;;27.54;31.70
37792;BME280;29527;55.766;37.570;2023-09-18T05:35:14;100250.59;;;28.02;30.50
37792;BME280;29527;55.766;37.570;2023-09-18T05:37:40;100257.56;;;28.72;29.90
37792;BME280;29527;55.766;37.570;2023-09-18T05:40:07;100237.06;;;29.22;28.74
37792;BME280;29527;55.766;37.570;2023-09-18T05:42:38;100253.56;;;29.53;28.40
37792;BME280;29527;55.766;37.570;2023-09-18T05:45:05;100243.94;;;29.91;27.82
37792;BME280;29527;55.766;37.570;2023-09-18T05:47:32;100238.50;;;30.49;26.65
37792;BME280;29527;55.766;37.570;2023-09-18T05:49:58;100248.28;;;31.49;25.17
37792;BME280;29527;55.766;37.570;2023-09-18T05:52:23;100237.94;;;32.24;24.39
37792;BME280;29527;55.766;37.570;2023-09-18T05:54:50;100250.09;;;32.67;23.49
37792;BME280;29527;55.766;37.570;2023-09-18T05:57:17;100242.63;;;32.68;23.54
37792;BME280;29527;55.766;37.570;2023-09-18T05:59:42;100241.00;;;32.99;23.09
37792;BME280;29527;55.766;37.570;2023-09-18T06:02:11;100243.94;;;33.53;22.58
37792;BME280;29527;55.766;37.570;2023-09-18T06:04:36;100225.09;;;34.08;21.79
37792;BME280;29527;55.766;37.570;2023-09-18T06:07:05;100247.53;;;34.96;20.89
37792;BME280;29527;55.766;37.570;2023-09-18T06:09:30;100224.19;;;35.18;20.57
37792;BME280;29527;55.766;37.570;2023-09-18T06:11:56;100240.34;;;35.05;20.75
37792;BME280;29527;55.766;37.570;2023-09-18T06:14:22;100244.78;;;33.53;22.08
37792;BME280;29527;55.766;37.570;2023-09-18T06:16:48;100197.75;;;31.37;24.03
37792;BME280;29527;55.766;37.570;2023-09-18T06:19:16;100247.03;;;30.07;26.52
37792;BME280;29527;55.766;37.570;2023-09-18T06:21:43;100244.28;;;28.50;28.53
37792;BME280;29527;55.766;37.570;2023-09-18T06:24:09;100241.78;;;27.49;29.94
37792;BME280;29527;55.766;37.570;2023-09-18T06:26:34;100238.75;;;26.74;31.37
37792;BME280;29527;55.766;37.570;2023-09-18T06:29:01;100247.22;;;26.34;31.90
37792;BME280;29527;55.766;37.570;2023-09-18T06:31:28;100256.63;;;25.86;32.83
37792;BME280;29527;55.766;37.570;2023-09-18T06:33:54;100256.25;;;25.55;33.44
37792;BME280;29527;55.766;37.570;2023-09-18T06:36:19;100251.38;;;25.30;33.97
37792;BME280;29527;55.766;37.570;2023-09-18T06:38:46;100256.63;;;24.85;34.60
37792;BME280;29527;55.766;37.570;2023-09-18T06:41:11;100253.59;;;24.11;35.94
37792;BME280;29527;55.766;37.570;2023-09-18T06:43:37;100265.59;;;23.46;37.42
37792;BME280;29527;55.766;37.570;2023-09-18T06:46:02;100255.13;;;22.84;38.72
37792;BME280;29527;55.766;37.570;2023-09-18T06:48:28;100254.69;;;22.29;40.31
37792;BME280;29527;55.766;37.570;2023-09-18T06:50:58;100243.06;;;21.75;41.05
37792;BME280;29527;55.766;37.570;2023-09-18T06:53:26;100244.56;;;21.24;42.06
37792;BME280;29527;55.766;37.570;2023-09-18T06:55:53;100234.50;;;20.78;43.21
37792;BME280;29527;55.766;37.570;2023-09-18T06:58:19;100272.63;;;20.70;44.10
37792;BME280;29527;55.766;37.570;2023-09-18T07:00:45;100275.19;;;20.40;44.61
37792;BME280;29527;55.766;37.570;2023-09-18T07:03:10;100265.41;;;20.22;45.19
37792;BME280;29527;55.766;37.570;2023-09-18T07:05:37;100275.84;;;20.02;45.83
37792;BME280;29527;55.766;37.570;2023-09-18T07:08:03;100278.06;;;19.90;45.98
37792;BME280;29527;55.766;37.570;2023-09-18T07:10:31;100275.19;;;19.75;46.57
37792;BME280;29527;55.766;37.570;2023-09-18T07:12:58;100283.53;;;19.73;46.59
37792;BME280;29527;55.766;37.570;2023-09-18T07:15:24;100286.25;;;19.57;47.63
37792;BME280;29527;55.766;37.570;2023-09-18T07:17:49;100285.75;;;19.45;47.86
37792;BME280;29527;55.766;37.570;2023-09-18T07:20:15;100284.75;;;19.21;48.32
37792;BME280;29527;55.766;37.570;2023-09-18T07:22:45;100305.28;;;19.07;48.96
37792;BME280;29527;55.766;37.570;2023-09-18T07:25:11;100294.50;;;18.80;49.56
37792;BME280;29527;55.766;37.570;2023-09-18T07:27:36;100299.91;;;18.64;50.03
37792;BME280;29527;55.766;37.570;2023-09-18T07:30:04;100302.06;;;18.52;50.53
37792;BME280;29527;55.766;37.570;2023-09-18T07:32:30;100300.19;;;18.44;50.55
37792;BME280;29527;55.766;37.570;2023-09-18T07:34:56;100275.69;;;18.19;50.94
37792;BME280;29527;55.766;37.570;2023-09-18T07:37:22;100307.78;;;18.41;50.87
37792;BME280;29527;55.766;37.570;2023-09-18T07:39:48;100315.28;;;18.47;50.93
37792;BME280;29527;55.766;37.570;2023-09-18T07:42:14;100302.88;;;18.44;50.98
37792;BME280;29527;55.766;37.570;2023-09-18T07:44:39;100309.19;;;18.53;50.80
37792;BME280;29527;55.766;37.570;2023-09-18T07:47:05;100306.81;;;18.58;50.85
37792;BME280;29527;55.766;37.570;2023-09-18T07:49:30;100324.00;;;18.75;50.26
37792;BME280;29527;55.766;37.570;2023-09-18T07:51:56;100323.88;;;18.93;49.98
37792;BME280;29527;55.766;37.570;2023-09-18T07:54:21;100317.00;;;19.07;49.51
37792;BME280;29527;55.766;37.570;2023-09-18T07:56:47;100315.13;;;19.25;49.23
37792;BME280;29527;55.766;37.570;2023-09-18T07:59:13;100313.59;;;19.39;48.99
37792;BME280;29527;55.766;37.570;2023-09-18T08:01:40;100300.69;;;19.57;48.67
37792;BME280;29527;55.766;37.570;2023-09-18T08:04:06;100302.38;;;19.83;48.03
37792;BME280;29527;55.766;37.570;2023-09-18T08:06:31;100305.06;;;20.00;47.43
37792;BME280;29527;55.766;37.570;2023-09-18T08:08:57;100312.19;;;20.01;47.44
37792;BME280;29527;55.766;37.570;2023-09-18T08:11:23;100277.22;;;19.73;47.91
37792;BME280;29527;55.766;37.570;2023-09-18T08:13:48;100318.84;;;19.73;48.41
37792;BME280;29527;55.766;37.570;2023-09-18T08:16:14;100315.31;;;19.56;48.53
37792;BME280;29527;55.766;37.570;2023-09-18T08:18:40;100316.31;;;19.55;49.01
37792;BME280;29527;55.766;37.570;2023-09-18T08:21:07;100319.38;;;19.60;49.05
37792;BME280;29527;55.766;37.570;2023-09-18T08:23:35;100318.50;;;19.60;48.93
37792;BME280;29527;55.766;37.570;2023-09-18T08:26:01;100316.63;;;19.69;48.90
37792;BME280;29527;55.766;37.570;2023-09-18T08:28:29;100331.91;;;19.70;48.83
37792;BME280;29527;55.766;37.570;2023-09-18T08:30:55;100319.69;;;19.74;48.70
37792;BME280;29527;55.766;37.570;2023-09-18T08:33:21;100315.25;;;19.89;48.68
37792;BME280;29527;55.766;37.570;2023-09-18T08:35:46;100313.00;;;20.10;47.89
37792;BME280;29527;55.766;37.570;2023-09-18T08:38:13;100313.78;;;20.35;47.46
37792;BME280;29527;55.766;37.570;2023-09-18T08:40:41;100309.25;;;20.59;47.31
37792;BME280;29527;55.766;37.570;2023-09-18T08:43:11;100276.56;;;20.67;46.31
37792;BME280;29527;55.766;37.570;2023-09-18T08:45:45;100299.06;;;21.16;45.68
37792;BME280;29527;55.766;37.570;2023-09-18T08:48:12;100292.44;;;21.33;45.35
37792;BME280;29527;55.766;37.570;2023-09-18T08:50:38;100299.34;;;21.44;45.54
37792;BME280;29527;55.766;37.570;2023-09-18T08:53:05;100295.59;;;21.45;45.97
37792;BME280;29527;55.766;37.570;2023-09-18T08:55:31;100275.66;;;21.45;46.00
37792;BME280;29527;55.766;37.570;2023-09-18T08:57:58;100291.66;;;21.48;45.93
37792;BME280;29527;55.766;37.570;2023-09-18T09:00:25;100293.63;;;21.54;45.46
37792;BME280;29527;55.766;37.570;2023-09-18T09:02:51;100262.97;;;21.37;45.25
37792;BME280;29527;55.766;37.570;2023-09-18T09:05:20;100303.00;;;21.75;44.85
37792;BME280;29527;55.766;37.570;2023-09-18T09:07:46;100286.72;;;21.82;44.42
37792;BME280;29527;55.766;37.570;2023-09-18T09:10:12;100306.78;;;21.74;44.61
37792;BME280;29527;55.766;37.570;2023-09-18T09:13:07;100307.63;;;21.51;45.30
37792;BME280;29527;55.766;37.570;2023-09-18T09:15:46;100313.22;;;21.11;46.32
37792;BME280;29527;55.766;37.570;2023-09-18T09:18:12;100309.19;;;20.67;46.75
37792;BME280;29527;55.766;37.570;2023-09-18T09:20:40;100315.06;;;20.47;47.52
37792;BME280;29527;55.766;37.570;2023-09-18T09:23:08;100325.00;;;20.32;48.38
37792;BME280;29527;55.766;37.570;2023-09-18T09:25:35;100285.03;;;19.84;49.56
37792;BME280;29527;55.766;37.570;2023-09-18T09:28:05;100335.31;;;19.72;50.44
37792;BME280;29527;55.766;37.570;2023-09-18T09:30:33;100329.19;;;19.28;51.52
37792;BME280;29527;55.766;37.570;2023-09-18T09:32:59;100324.72;;;18.94;52.51
37792;BME280;29527;55.766;37.570;2023-09-18T09:35:37;100333.81;;;18.76;53.95
37792;BME280;29527;55.766;37.570;2023-09-18T09:38:10;100336.63;;;18.50;55.50
37792;BME280;29527;55.766;37.570;2023-09-18T09:40:40;100348.75;;;18.29;56.67
37792;BME280;29527;55.766;37.570;2023-09-18T09:43:08;100332.09;;;17.98;57.33
37792;BME280;29527;55.766;37.570;2023-09-18T09:45:34;100306.59;;;17.82;58.87
37792;BME280;29527;55.766;37.570;2023-09-18T09:48:04;100329.91;;;17.75;59.50
37792;BME280;29527;55.766;37.570;2023-09-18T09:50:31;100304.50;;;17.68;60.38
37792;BME280;29527;55.766;37.570;2023-09-18T09:52:57;100319.13;;;17.83;61.18
37792;BME280;29527;55.766;37.570;2023-09-18T09:55:31;100316.59;;;18.08;60.18
37792;BME280;29527;55.766;37.570;2023-09-18T10:02:59;100326.63;;;18.50;58.53
37792;BME280;29527;55.766;37.570;2023-09-18T10:05:34;100318.56;;;18.67;57.99
37792;BME280;29527;55.766;37.570;2023-09-18T10:08:11;100337.94;;;18.89;58.24
37792;BME280;29527;55.766;37.570;2023-09-18T10:10:43;100329.00;;;19.05;57.15
37792;BME280;29527;55.766;37.570;2023-09-18T10:13:16;100340.25;;;19.27;56.37
37792;BME280;29527;55.766;37.570;2023-09-18T10:15:43;100340.56;;;19.32;56.74
37792;BME280;29527;55.766;37.570;2023-09-18T10:18:18;100338.03;;;19.47;56.00
37792;BME280;29527;55.766;37.570;2023-09-18T10:20:51;100336.16;;;19.39;55.56
37792;BME280;29527;55.766;37.570;2023-09-18T10:23:38;100333.47;;;19.47;56.10
37792;BME280;29527;55.766;37.570;2023-09-18T10:26:11;100336.34;;;19.38;55.92
37792;BME280;29527;55.766;37.570;2023-09-18T10:28:42;100328.53;;;19.43;56.52
37792;BME280;29527;55.766;37.570;2023-09-18T10:31:09;100327.19;;;19.55;55.64
37792;BME280;29527;55.766;37.570;2023-09-18T10:33:37;100331.91;;;19.70;55.30
37792;BME280;29527;55.766;37.570;2023-09-18T10:36:04;100293.88;;;19.70;54.49
37792;BME280;29527;55.766;37.570;2023-09-18T10:38:31;100326.13;;;20.06;54.28
37792;BME280;29527;55.766;37.570;2023-09-18T10:40:57;100327.78;;;20.15;53.47
37792;BME280;29527;55.766;37.570;2023-09-18T10:43:24;100286.38;;;19.97;52.68
37792;BME280;29527;55.766;37.570;2023-09-18T10:45:50;100302.00;;;19.94;53.15
37792;BME280;29527;55.766;37.570;2023-09-18T10:48:18;100297.09;;;19.90;54.00
37792;BME280;29527;55.766;37.570;2023-09-18T10:50:44;100318.28;;;20.11;54.29
37792;BME280;29527;55.766;37.570;2023-09-18T10:53:11;100323.53;;;20.21;53.45
37792;BME280;29527;55.766;37.570;2023-09-18T10:55:38;100325.72;;;20.26;53.10
37792;BME280;29527;55.766;37.570;2023-09-18T10:58:04;100304.44;;;20.29;53.39
37792;BME280;29527;55.766;37.570;2023-09-18T11:00:31;100323.94;;;20.41;53.59
37792;BME280;29527;55.766;37.570;2023-09-18T11:03:14;100316.81;;;20.40;53.07
37792;BME280;29527;55.766;37.570;2023-09-18T11:05:44;100319.06;;;20.28;52.79
37792;BME280;29527;55.766;37.570;2023-09-18T11:08:30;100321.28;;;20.33;53.04
37792;BME280;29527;55.766;37.570;2023-09-18T11:11:00;100320.13;;;20.59;52.11
37792;BME280;29527;55.766;37.570;2023-09-18T11:13:31;100314.84;;;20.17;52.26
37792;BME280;29527;55.766;37.570;2023-09-18T11:16:00;100317.28;;;20.04;53.09
37792;BME280;29527;55.766;37.570;2023-09-18T11:18:32;100323.00;;;20.17;52.97
37792;BME280;29527;55.766;37.570;2023-09-18T11:21:08;100326.34;;;20.36;52.99
37792;BME280;29527;55.766;37.570;2023-09-18T11:23:35;100324.66;;;20.35;52.14
37792;BME280;29527;55.766;37.570;2023-09-18T11:26:07;100321.88;;;20.51;52.66
37792;BME280;29527;55.766;37.570;2023-09-18T11:28:33;100320.41;;;20.41;51.86
37792;BME280;29527;55.766;37.570;2023-09-18T11:30:58;100291.78;;;20.13;52.59
37792;BME280;29527;55.766;37.570;2023-09-18T11:36:01;100327.69;;;20.40;51.87
37792;BME280;29527;55.766;37.570;2023-09-18T11:38:28;100288.94;;;19.90;52.18
37792;BME280;29527;55.766;37.570;2023-09-18T11:40:54;100329.53;;;19.75;53.56
37792;BME280;29527;55.766;37.570;2023-09-18T11:43:27;100321.91;;;19.54;54.07
37792;BME280;29527;55.766;37.570;2023-09-18T11:46:00;100340.94;;;19.45;54.48
37792;BME280;29527;55.766;37.570;2023-09-18T11:48:27;100336.66;;;19.10;55.40
37792;BME280;29527;55.766;37.570;2023-09-18T11:50:59;100337.47;;;18.93;56.16
37792;BME280;29527;55.766;37.570;2023-09-18T11:53:27;100339.94;;;18.78;56.41
37792;BME280;29527;55.766;37.570;2023-09-18T11:55:53;100333.41;;;18.55;57.16
37792;BME280;29527;55.766;37.570;2023-09-18T11:58:18;100329.66;;;18.47;57.59
37792;BME280;29527;55.766;37.570;2023-09-18T12:00:49;100336.84;;;18.57;57.46
37792;BME280;29527;55.766;37.570;2023-09-18T12:03:20;100335.50;;;18.69;57.22
37792;BME280;29527;55.766;37.570;2023-09-18T12:06:02;100337.59;;;18.84;56.99
37792;BME280;29527;55.766;37.570;2023-09-18T12:08:31;100338.91;;;18.79;56.63
37792;BME280;29527;55.766;37.570;2023-09-18T12:10:58;100337.94;;;18.89;56.30
37792;BME280;29527;55.766;37.570;2023-09-18T12:13:27;100337.84;;;19.07;55.76
37792;BME280;29527;55.766;37.570;2023-09-18T12:16:01;100337.69;;;19.17;55.26
37792;BME280;29527;55.766;37.570;2023-09-18T12:18:28;100334.78;;;19.02;55.72
37792;BME280;29527;55.766;37.570;2023-09-18T12:20:54;100333.09;;;19.09;55.28
37792;BME280;29527;55.766;37.570;2023-09-18T12:23:21;100334.44;;;19.13;55.52
37792;BME280;29527;55.766;37.570;2023-09-18T12:25:49;100341.25;;;19.26;54.55
37792;BME280;29527;55.766;37.570;2023-09-18T12:28:15;100337.88;;;19.32;54.90
37792;BME280;29527;55.766;37.570;2023-09-18T12:30:43;100336.69;;;19.34;54.42
37792;BME280;29527;55.766;37.570;2023-09-18T12:33:09;100331.59;;;19.40;54.54
37792;BME280;29527;55.766;37.570;2023-09-18T12:35:36;100332.44;;;19.57;54.18
37792;BME280;29527;55.766;37.570;2023-09-18T12:38:13;100335.84;;;19.92;53.75
37792;BME280;29527;55.766;37.570;2023-09-18T12:40:39;100324.78;;;20.02;52.89
37792;BME280;29527;55.766;37.570;2023-09-18T12:43:05;100330.50;;;20.15;52.86
37792;BME280;29527;55.766;37.570;2023-09-18T12:45:31;100310.34;;;19.93;52.51
37792;BME280;29527;55.766;37.570;2023-09-18T12:47:58;100344.81;;;19.84;53.13